Go Pro

Amplify Cybersecurity ETF (HACK) Institutional Ownership

Amplify Cybersecurity ETF logo
$110.75 -0.78 (-0.70%)
As of 09/4/2026 04:10 PM Eastern

Institutional Ownership Changes (13F Filings) for Amplify Cybersecurity ETF (NYSEARCA:HACK)

Number of
Institutional Buyers
(last 12 months)
162
Total
Institutional Inflows
(last 12 months)
$115.07M
Number of
Institutional Sellers
(last 12 months)
119
Total
Institutional Outflows
(last 12 months)
$56.81M
Get HACK Insider Trade Alerts

Want to know when executives and insiders are buying or selling Amplify Cybersecurity ETF stock? Sign up for InsiderTrades.com's daily newsletter to get the latest insider transactions delivered to your inbox daily.

SMS is currently available in Australia, Belgium, Canada, France, Germany, Ireland, Italy, New Zealand, the Netherlands, Singapore, South Africa, Spain, Switzerland, the United Kingdom, and the United States. By entering your phone number and clicking the sign-up button, you agree to receive periodic text messages from MarketBeat at the phone number you submitted, including texts that may be sent using an automatic telephone dialing system. Message and data rates may apply. Message frequency will vary. Messages will consist of stock alerts, news stories, and partner advertisements/offers. Consent is not a condition of the purchase of any goods or services. Text HELP for help/customer support. Unsubscribe at any time by replying "STOP" to any text message that you receive from MarketBeat or by visiting our mailing preferences page. Read our full terms of service and privacy policy.
Skip Chart & View Institutional Buying and Selling Data

HACK Institutional Buying and Selling by Quarter

Amplify Cybersecurity ETF Major Shareholders & Ownership History

Reporting DateMajor Shareholder NameShares HeldMarket Value% of PortfolioQuarterly Change in SharesOwnership in CompanyDetails
8/27/2026 Corient Private Wealth LP74,899$7.86M0.0%-2.6%0.298%
8/23/2026 Ameritas Advisory Services LLC20,460$2.15M0.0%+89.9%0.081%
8/23/2026 Fortitude Advisory Group L.L.C.2,323$244K0.1%N/A0.009%
8/22/2026 Compass Financial Management LLC2,037$232K0.0%N/A0.008%
8/22/2026 TD Waterhouse Canada Inc.25,871$2.77M0.0%+5.8%0.103%
8/22/2026 Concurrent Investment Advisors LLC1,996$209K0.0%N/A0.008%
8/21/2026 Continuum Advisory LLC767$80K0.0%N/A0.003%
8/21/2026 Acorn Wealth Advisors LLC2,394$251K0.1%N/A0.010%
8/21/2026 Legacy Financial Advisors Inc.1,925$202K0.0%N/A0.008%
8/12/2026 Compass Financial Management LLC2,037$232K0.0%N/A0.008%
7/10/2026 City Holding Co.6,875$721K0.1%-3.3%0.028%
7/10/2026 Bay Colony Advisory Group Inc d b a Bay Colony Advisors2,122$223K0.0%N/A0.009%
7/10/2026 Wealthcare Advisory Partners LLC5,202$546K0.0%-2.5%0.021%
7/9/2026 Key Client Fiduciary Advisors LLC6,466$678K0.2%-6.2%0.026%
7/9/2026 Wealthcare Capital Partners LLC8,360$877K0.4%+3.2%0.034%
7/9/2026 Allied Private Wealth LLC1,281$139K0.1%N/A0.005%
7/9/2026 Sax Wealth Advisors LLC5,805$609K0.0%-7.2%0.024%
7/8/2026 AAFMAA Wealth Management & Trust LLC31,270$3.28M1.1%+8.0%0.127%
7/7/2026 Dynamic Advisor Solutions LLC5,853$614K0.0%N/A0.024%
7/7/2026 Calder Financial LLC2,165$227K0.2%N/A0.009%
7/6/2026 Vigilare Wealth Management13,791$1.45M0.4%+37.0%0.056%
7/1/2026 PVG Asset Management Corp2,997$314K0.2%N/A0.012%
6/18/2026 Western Wealth Management LLC1,735$130K0.0%-80.6%0.007%
6/3/2026 Parallel Advisors LLC8,221$617K0.0%+9.3%0.033%
6/3/2026 NewEdge Advisors LLC13,777$1.04M0.0%-14.6%0.055%
5/26/2026 Glenmede Trust Co. NA1,946$146K0.0%-29.8%0.008%
5/19/2026 Western Wealth Management LLC1,735$130K0.0%-80.6%0.007%
5/19/2026 Bank of America Corp DE180,181$13.53M0.0%+7.7%0.725%
5/19/2026 Centaurus Financial Inc.18,861$1.42M0.1%+3.3%0.076%
5/19/2026 Arkadios Wealth Advisors48,715$3.66M0.1%+26.5%0.196%
5/18/2026 Royal Bank of Canada224,639$16.87M0.0%-5.5%0.904%
5/16/2026 Ashford Capital Management Inc.37,526$2.82M0.3%+12.3%0.151%
5/15/2026 Everest Financial Group LLC3,398$255K0.0%N/A0.014%
5/15/2026 Waverly Advisors LLC18,736$1.41M0.0%+1.8%0.075%
5/14/2026 Hilltop Holdings Inc.11,392$855K0.1%N/A0.046%
5/14/2026 Lido Advisors LLC16,461$1.24M0.0%-1.5%0.066%
5/13/2026 Cetera Investment Advisers207,321$15.57M0.0%+38.4%0.834%
5/13/2026 Clearwater Capital Advisors LLC7,837$588K0.0%-2.6%0.032%
5/7/2026 Florida Financial Advisors LLC4,174$313K0.1%+3.1%0.017%
5/7/2026 Parallel Advisors LLC8,221$617K0.0%+9.3%0.033%
This looks like plywood. It's not. (Ad)

AI data centers have a power problem nobody likes to talk about. A single rack of computers can now use more electricity than an entire office building. One new chip, which looks more like a piece of plywood than a processor, delivers similar performance on a fraction of the power. Tech investing veteran George Gilder says that efficiency gap could decide who wins the next stage of AI. Gilder has identified three companies positioned around this power breakthrough, calling them the Trillion Dollar Triangle.tc pixel

See the three companies behind this AI power breakthrough now
5/7/2026 Pacific Wealth Strategies Group Inc.26,663$2.00M1.2%+142.2%0.107%
5/7/2026 Valley Wealth Managers Inc.45,430$3.41M0.2%+2.9%0.183%
5/7/2026 Spartan Wealth Advisory Services LLC12,888$968K0.1%N/A0.052%
5/7/2026 Crescent Grove Advisors LLC10,787$810K0.1%-4.1%0.043%
5/6/2026 Ranch Capital Advisors Inc.4,165$313K0.1%-28.0%0.017%
5/6/2026 Independent Financial Group LLC44,875$3.37M0.1%N/A0.181%
5/5/2026 Wealthfront Advisers LLC31,091$2.34M0.0%-7.5%0.125%
5/5/2026 D.A. Davidson & CO.73,286$5.50M0.0%+44.8%0.295%
5/5/2026 Harel Insurance Investments & Financial Services Ltd.500$38K0.0%-41.2%0.002%
5/4/2026 Northland Securities Inc.13,421$1.01M1.0%-1.3%0.054%
5/4/2026 Nadler Financial Group Inc.7,065$531K0.1%-4.1%0.028%
5/4/2026 Y.D. More Investments Ltd588$43K0.0%+292.0%0.002%
5/2/2026 International Assets Investment Management LLC5,916$451K0.0%+4.0%0.024%
5/2/2026 Diversify Wealth Management LLC5,347$430K0.0%N/A0.022%
5/1/2026 Fifth Third Bancorp2,941$221K0.0%N/A0.012%
4/30/2026 Griffin Asset Management Inc.6,513$489K0.1%-15.5%0.026%
4/30/2026 Kestra Advisory Services LLC30,292$2.28M0.0%+13.7%0.122%
4/29/2026 Saxon Interests Inc.3,799$285K0.1%-29.4%0.015%
4/29/2026 Dumont & Blake Investment Advisors LLC18,698$1.40M0.4%+60.0%0.075%
4/28/2026 Appleton Partners Inc. MA43,994$3.30M0.2%-3.6%0.177%
4/28/2026 Evolution Wealth Management Inc.580$44K0.0%+51.8%0.002%
4/27/2026 PFG Investments LLC6,705$504K0.0%+8.1%0.027%
4/27/2026 World Investment Advisors5,125$385K0.0%+25.2%0.021%
4/27/2026 Private Advisor Group LLC15,367$1.15M0.0%-15.2%0.062%
4/23/2026 Mayflower Financial Advisors LLC10,148$762K0.1%-1.6%0.041%
4/23/2026 Apollon Financial LLC29,825$2.24M0.3%-0.7%0.120%
4/23/2026 Apollon Wealth Management LLC5,058$380K0.0%-2.5%0.020%
4/22/2026 Patriot Financial Group Insurance Agency LLC2,836$213K0.0%N/A0.011%
4/22/2026 Janney Montgomery Scott LLC55,647$4.18M0.0%-14.1%0.224%
4/21/2026 Pinnacle Wealth Management Advisory Group LLC3,180$239K0.0%N/A0.013%
4/21/2026 Independent Wealth Network Inc.12,727$956K0.3%+1.5%0.051%
4/21/2026 Urban Wealth Management LLC3,032$228K0.2%+17.7%0.012%
4/21/2026 Artesa Financial Group LLC56,095$4.21M4.0%+1.8%0.224%
4/20/2026 Kestra Private Wealth Services LLC15,820$1.19M0.0%-8.0%0.063%
4/20/2026 Thoma Capital Management LLC68,835$5.17M3.1%+5.4%0.275%
4/17/2026 A. D. Beadell Investment Counsel Inc.3,890$292K0.2%N/A0.015%
4/17/2026 AdvisorNet Financial Inc638$48K0.0%+27.1%0.003%
4/17/2026 Capital Advisors Ltd. LLC5,264$395K0.0%+18.0%0.021%
4/17/2026 Brookstone Capital Management46,865$3.52M0.0%+26.6%0.187%
3/17/2026 Rockefeller Capital Management L.P.85,841$6.90M0.0%-2.6%0.333%
3/13/2026 World Investment Advisors4,093$329K0.0%N/A0.016%
3/11/2026 Larry Mathis Financial Planning LLC9,762$785K0.7%N/A0.038%
2/27/2026 Instrumental Wealth LLC11,881$876K0.5%+23.0%0.046%
2/19/2026 Corient Private Wealth LLC118,247$9.50M0.0%+49.2%0.458%
2/18/2026 Strive Financial Group LLC792$64K0.0%N/A0.003%
2/18/2026 Mercer Global Advisors Inc. ADV26,662$2.14M0.0%-5.9%0.103%
2/18/2026 Beacon Pointe Advisors LLC8,969$721K0.0%+5.1%0.035%
2/18/2026 EP Wealth Advisors LLC4,514$363K0.0%N/A0.017%
2/18/2026 NewEdge Advisors LLC16,136$1.30M0.0%+15.7%0.063%
2/18/2026 Cahill Financial Advisors Inc.5,403$434K0.0%-8.3%0.021%
This sub-5 dollar stock operates next to SpaceX and Blue Origin (Ad)

A small public company trading under $5 a share operates inside the secure perimeter of Kennedy Space Center, right alongside SpaceX and Blue Origin. It holds a special agreement to use a multi-billion dollar federal launch facility for just $500, and its customer list already includes the Pentagon, Lockheed Martin, and GE Aerospace. Most Wall Street analysts have not caught on yet, but a major milestone could change that soon.tc pixel

Click here to see the company behind the gates
2/18/2026 VestGen Advisors LLC29,409$2.36M0.1%+57.9%0.114%
2/18/2026 Mustico Financial Group Inc.3,869$311K0.3%+6.5%0.015%
2/18/2026 Hyposwiss Advisors SA20,911$1.69M1.7%N/A0.081%
2/17/2026 AQR Capital Management LLC3,953$318K0.0%N/A0.015%
2/17/2026 Cetera Investment Advisers149,850$12.04M0.0%+5.9%0.581%
2/17/2026 Equitable Holdings Inc.5,478$440K0.0%-15.9%0.021%
2/17/2026 Laird Norton Wetherby Trust Company LLC7,940$638K0.0%N/A0.031%
2/17/2026 Osaic Holdings Inc.141,422$11.37M0.0%-2.1%0.548%
2/17/2026 Advisory Services Network LLC13,132$1.06M0.0%-72.4%0.051%
2/17/2026 Captrust Financial Advisors14,832$1.19M0.0%-1.4%0.057%


HACK Institutional Ownership - Frequently Asked Questions

During the previous two years, 350 institutional investors and hedge funds held shares of Amplify Cybersecurity ETF. The most heavily invested institutionals were LPL Financial LLC ($58.72M), HighTower Advisors LLC ($28.04M), Thrivent Financial for Lutherans ($27.00M), Wealth Enhancement Advisory Services LLC ($24.64M), Destination Wealth Management ($24.53M), Raymond James Financial Inc. ($22.65M), and Benjamin Edwards Inc. ($18.39M).Learn more on Amplify Cybersecurity ETF's institutional investors.

Of the 306 institutional investors that purchased Amplify Cybersecurity ETF's stock in the last 24 months, the following investors and hedge funds have bought the highest volume of shares: Thrivent Financial for Lutherans ($566.19K), Raymond James Financial Inc. ($515.62K), HighTower Advisors LLC ($255.80K), Benjamin Edwards Inc. ($252.98K), BFI Infinity Ltd. ($241.37K), Cetera Investment Advisers ($215.31K), and Bryn Mawr Capital Management LLC ($204.70K).

Institutional investors have bought a total of 1,411,477 shares in the last 24 months. This purchase volume represents approximately $115.07M in transactions.

Of the 119 institutional investors that sold Amplify Cybersecurity ETF's stock in the last 24 months, the following investors and hedge funds have sold the highest volume of shares: Envestnet Asset Management Inc. ($189.52K), Capital Investment Advisory Services LLC ($70.64K), Northwestern Mutual Wealth Management Co. ($59.96K), Meridian Wealth Management LLC ($41K), Primoris Wealth Advisors LLC ($38.30K), Advisory Services Network LLC ($34.48K), and Janney Montgomery Scott LLC ($20.07K).

Institutional investors have sold a total of 678,021 shares in the last 24 months. This volume of shares sold represents approximately $56.81M in transactions.



Institutional ownership data for NYSEARCA:HACK is compiled from quarterly 13F filings submitted to the U.S. Securities and Exchange Commission (SEC), with the most recent received on 8/27/2026. New 13F filings are added each quarter as they're published.
From Our Partners